sensor_id;sensor_type;location;lat;lon;timestamp;P1;durP1;ratioP1;P2;durP2;ratioP2
20110;SDS011;10216;42.658;23.248;2022-10-18T00:00:48;5.43;;;4.10;;
20110;SDS011;10216;42.658;23.248;2022-10-18T00:03:14;6.07;;;4.30;;
20110;SDS011;10216;42.658;23.248;2022-10-18T00:05:39;5.77;;;4.13;;
20110;SDS011;10216;42.658;23.248;2022-10-18T00:08:04;5.03;;;4.30;;
20110;SDS011;10216;42.658;23.248;2022-10-18T00:10:30;4.90;;;4.00;;
20110;SDS011;10216;42.658;23.248;2022-10-18T00:12:55;8.47;;;4.67;;
20110;SDS011;10216;42.658;23.248;2022-10-18T00:15:20;6.80;;;4.37;;
20110;SDS011;10216;42.658;23.248;2022-10-18T00:17:46;6.60;;;4.90;;
20110;SDS011;10216;42.658;23.248;2022-10-18T00:20:11;5.57;;;4.70;;
20110;SDS011;10216;42.658;23.248;2022-10-18T00:22:38;8.77;;;4.87;;
20110;SDS011;10216;42.658;23.248;2022-10-18T00:25:04;8.03;;;4.27;;
20110;SDS011;10216;42.658;23.248;2022-10-18T00:27:31;8.70;;;4.90;;
20110;SDS011;10216;42.658;23.248;2022-10-18T00:29:57;6.37;;;4.37;;
20110;SDS011;10216;42.658;23.248;2022-10-18T00:32:23;6.87;;;5.23;;
20110;SDS011;10216;42.658;23.248;2022-10-18T00:34:49;5.57;;;4.60;;
20110;SDS011;10216;42.658;23.248;2022-10-18T00:37:14;10.67;;;4.63;;
20110;SDS011;10216;42.658;23.248;2022-10-18T00:39:40;6.77;;;4.63;;
20110;SDS011;10216;42.658;23.248;2022-10-18T00:42:06;5.50;;;4.70;;
20110;SDS011;10216;42.658;23.248;2022-10-18T00:47:03;7.87;;;4.70;;
20110;SDS011;10216;42.658;23.248;2022-10-18T00:52:08;6.17;;;4.80;;
20110;SDS011;10216;42.658;23.248;2022-10-18T00:54:37;7.47;;;5.03;;
20110;SDS011;10216;42.658;23.248;2022-10-18T00:57:05;6.00;;;4.70;;
20110;SDS011;10216;42.658;23.248;2022-10-18T00:59:31;5.23;;;4.57;;
20110;SDS011;10216;42.658;23.248;2022-10-18T01:01:58;7.40;;;4.93;;
20110;SDS011;10216;42.658;23.248;2022-10-18T01:04:24;7.80;;;4.97;;
20110;SDS011;10216;42.658;23.248;2022-10-18T01:06:54;6.77;;;4.90;;
20110;SDS011;10216;42.658;23.248;2022-10-18T01:09:31;6.80;;;5.20;;
20110;SDS011;10216;42.658;23.248;2022-10-18T01:12:08;6.57;;;5.00;;
20110;SDS011;10216;42.658;23.248;2022-10-18T01:15:11;9.23;;;4.77;;
20110;SDS011;10216;42.658;23.248;2022-10-18T01:17:42;5.23;;;4.57;;
20110;SDS011;10216;42.658;23.248;2022-10-18T01:31:19;7.70;;;5.03;;
20110;SDS011;10216;42.658;23.248;2022-10-18T01:33:51;7.37;;;5.20;;
20110;SDS011;10216;42.658;23.248;2022-10-18T01:36:25;7.90;;;5.20;;
20110;SDS011;10216;42.658;23.248;2022-10-18T01:38:52;12.10;;;5.00;;
20110;SDS011;10216;42.658;23.248;2022-10-18T01:41:21;7.50;;;5.07;;
20110;SDS011;10216;42.658;23.248;2022-10-18T01:43:49;6.93;;;5.00;;
20110;SDS011;10216;42.658;23.248;2022-10-18T01:46:21;9.20;;;5.43;;
20110;SDS011;10216;42.658;23.248;2022-10-18T01:48:49;10.37;;;6.03;;
20110;SDS011;10216;42.658;23.248;2022-10-18T01:51:26;9.83;;;5.07;;
20110;SDS011;10216;42.658;23.248;2022-10-18T01:53:54;7.97;;;5.20;;
20110;SDS011;10216;42.658;23.248;2022-10-18T02:01:56;9.00;;;5.13;;
20110;SDS011;10216;42.658;23.248;2022-10-18T02:05:08;8.77;;;5.40;;
20110;SDS011;10216;42.658;23.248;2022-10-18T02:09:59;9.27;;;5.53;;
20110;SDS011;10216;42.658;23.248;2022-10-18T02:12:30;8.37;;;5.10;;
20110;SDS011;10216;42.658;23.248;2022-10-18T02:14:57;8.13;;;5.47;;
20110;SDS011;10216;42.658;23.248;2022-10-18T02:17:25;6.77;;;5.07;;
20110;SDS011;10216;42.658;23.248;2022-10-18T02:19:54;6.97;;;5.97;;
20110;SDS011;10216;42.658;23.248;2022-10-18T02:22:20;9.37;;;5.60;;
20110;SDS011;10216;42.658;23.248;2022-10-18T02:24:52;7.87;;;5.83;;
20110;SDS011;10216;42.658;23.248;2022-10-18T02:27:20;7.87;;;5.60;;
20110;SDS011;10216;42.658;23.248;2022-10-18T02:29:46;9.37;;;5.53;;
20110;SDS011;10216;42.658;23.248;2022-10-18T02:37:31;6.60;;;5.47;;
20110;SDS011;10216;42.658;23.248;2022-10-18T02:40:01;10.57;;;5.57;;
20110;SDS011;10216;42.658;23.248;2022-10-18T02:42:32;6.83;;;5.57;;
20110;SDS011;10216;42.658;23.248;2022-10-18T02:44:59;7.43;;;5.63;;
20110;SDS011;10216;42.658;23.248;2022-10-18T02:47:26;6.20;;;5.50;;
20110;SDS011;10216;42.658;23.248;2022-10-18T02:49:53;7.90;;;5.30;;
20110;SDS011;10216;42.658;23.248;2022-10-18T02:52:19;6.60;;;5.27;;
20110;SDS011;10216;42.658;23.248;2022-10-18T02:54:44;7.40;;;5.17;;
20110;SDS011;10216;42.658;23.248;2022-10-18T02:57:09;10.17;;;6.20;;
20110;SDS011;10216;42.658;23.248;2022-10-18T02:59:35;5.67;;;4.90;;
20110;SDS011;10216;42.658;23.248;2022-10-18T03:02:00;7.40;;;5.67;;
20110;SDS011;10216;42.658;23.248;2022-10-18T03:04:25;8.63;;;5.73;;
20110;SDS011;10216;42.658;23.248;2022-10-18T03:06:51;7.80;;;4.77;;
20110;SDS011;10216;42.658;23.248;2022-10-18T03:09:16;10.80;;;6.53;;
20110;SDS011;10216;42.658;23.248;2022-10-18T03:11:41;9.20;;;5.40;;
20110;SDS011;10216;42.658;23.248;2022-10-18T03:14:07;6.73;;;5.23;;
20110;SDS011;10216;42.658;23.248;2022-10-18T03:16:32;8.83;;;6.00;;
20110;SDS011;10216;42.658;23.248;2022-10-18T03:18:58;6.67;;;5.20;;
20110;SDS011;10216;42.658;23.248;2022-10-18T03:21:23;8.57;;;6.30;;
20110;SDS011;10216;42.658;23.248;2022-10-18T03:23:51;5.20;;;4.47;;
20110;SDS011;10216;42.658;23.248;2022-10-18T03:26:16;11.87;;;6.60;;
20110;SDS011;10216;42.658;23.248;2022-10-18T03:28:41;6.67;;;5.13;;
20110;SDS011;10216;42.658;23.248;2022-10-18T03:31:07;8.33;;;6.30;;
20110;SDS011;10216;42.658;23.248;2022-10-18T03:33:32;9.63;;;5.47;;
20110;SDS011;10216;42.658;23.248;2022-10-18T03:35:58;6.13;;;5.07;;
20110;SDS011;10216;42.658;23.248;2022-10-18T03:38:23;11.03;;;6.23;;
20110;SDS011;10216;42.658;23.248;2022-10-18T03:40:49;7.20;;;4.93;;
20110;SDS011;10216;42.658;23.248;2022-10-18T03:43:14;9.27;;;6.43;;
20110;SDS011;10216;42.658;23.248;2022-10-18T03:45:39;7.33;;;5.87;;
20110;SDS011;10216;42.658;23.248;2022-10-18T03:48:05;9.73;;;6.40;;
20110;SDS011;10216;42.658;23.248;2022-10-18T03:50:31;7.33;;;5.50;;
20110;SDS011;10216;42.658;23.248;2022-10-18T03:52:58;9.63;;;6.53;;
20110;SDS011;10216;42.658;23.248;2022-10-18T03:55:23;5.13;;;4.50;;
20110;SDS011;10216;42.658;23.248;2022-10-18T03:57:49;9.87;;;6.00;;
20110;SDS011;10216;42.658;23.248;2022-10-18T04:00:14;9.57;;;5.83;;
20110;SDS011;10216;42.658;23.248;2022-10-18T04:02:40;5.90;;;5.00;;
20110;SDS011;10216;42.658;23.248;2022-10-18T04:05:05;11.67;;;6.70;;
20110;SDS011;10216;42.658;23.248;2022-10-18T04:07:32;10.47;;;5.17;;
20110;SDS011;10216;42.658;23.248;2022-10-18T04:09:58;8.60;;;6.70;;
20110;SDS011;10216;42.658;23.248;2022-10-18T04:12:23;7.90;;;5.00;;
20110;SDS011;10216;42.658;23.248;2022-10-18T04:14:49;11.33;;;6.63;;
20110;SDS011;10216;42.658;23.248;2022-10-18T04:17:14;7.27;;;5.63;;
20110;SDS011;10216;42.658;23.248;2022-10-18T04:19:39;8.83;;;6.53;;
20110;SDS011;10216;42.658;23.248;2022-10-18T04:22:05;6.33;;;5.10;;
20110;SDS011;10216;42.658;23.248;2022-10-18T04:24:31;8.70;;;5.43;;
20110;SDS011;10216;42.658;23.248;2022-10-18T04:26:56;10.57;;;6.27;;
20110;SDS011;10216;42.658;23.248;2022-10-18T04:29:24;9.73;;;5.47;;
20110;SDS011;10216;42.658;23.248;2022-10-18T04:31:50;10.77;;;6.87;;
20110;SDS011;10216;42.658;23.248;2022-10-18T04:34:15;6.50;;;4.90;;
20110;SDS011;10216;42.658;23.248;2022-10-18T04:36:40;22.87;;;7.47;;
20110;SDS011;10216;42.658;23.248;2022-10-18T04:39:06;6.20;;;5.20;;
20110;SDS011;10216;42.658;23.248;2022-10-18T04:41:34;8.17;;;5.30;;
20110;SDS011;10216;42.658;23.248;2022-10-18T04:44:00;7.47;;;5.83;;
20110;SDS011;10216;42.658;23.248;2022-10-18T04:46:25;5.87;;;5.30;;
20110;SDS011;10216;42.658;23.248;2022-10-18T04:48:50;7.40;;;5.03;;
20110;SDS011;10216;42.658;23.248;2022-10-18T04:51:16;10.87;;;5.63;;
20110;SDS011;10216;42.658;23.248;2022-10-18T04:53:41;12.13;;;6.70;;
20110;SDS011;10216;42.658;23.248;2022-10-18T04:56:07;8.43;;;5.20;;
20110;SDS011;10216;42.658;23.248;2022-10-18T04:58:32;8.73;;;5.63;;
20110;SDS011;10216;42.658;23.248;2022-10-18T05:00:58;10.50;;;5.93;;
20110;SDS011;10216;42.658;23.248;2022-10-18T05:03:23;10.73;;;6.87;;
20110;SDS011;10216;42.658;23.248;2022-10-18T05:05:48;11.87;;;6.10;;
20110;SDS011;10216;42.658;23.248;2022-10-18T05:08:14;11.47;;;7.17;;
20110;SDS011;10216;42.658;23.248;2022-10-18T05:10:39;9.73;;;6.93;;
20110;SDS011;10216;42.658;23.248;2022-10-18T05:13:05;8.70;;;6.70;;
20110;SDS011;10216;42.658;23.248;2022-10-18T05:15:30;14.40;;;7.50;;
20110;SDS011;10216;42.658;23.248;2022-10-18T05:17:55;12.37;;;7.80;;
20110;SDS011;10216;42.658;23.248;2022-10-18T05:20:21;10.37;;;7.10;;
20110;SDS011;10216;42.658;23.248;2022-10-18T05:22:46;8.17;;;7.00;;
20110;SDS011;10216;42.658;23.248;2022-10-18T05:25:14;8.53;;;6.60;;
20110;SDS011;10216;42.658;23.248;2022-10-18T05:27:39;10.77;;;7.43;;
20110;SDS011;10216;42.658;23.248;2022-10-18T05:30:05;9.90;;;6.80;;
20110;SDS011;10216;42.658;23.248;2022-10-18T05:32:31;8.50;;;6.17;;
20110;SDS011;10216;42.658;23.248;2022-10-18T05:34:56;8.90;;;6.60;;
20110;SDS011;10216;42.658;23.248;2022-10-18T05:37:21;9.97;;;7.50;;
20110;SDS011;10216;42.658;23.248;2022-10-18T05:39:47;10.00;;;6.77;;
20110;SDS011;10216;42.658;23.248;2022-10-18T05:42:12;8.63;;;6.33;;
20110;SDS011;10216;42.658;23.248;2022-10-18T05:44:38;9.00;;;6.60;;
20110;SDS011;10216;42.658;23.248;2022-10-18T05:47:03;7.57;;;6.13;;
20110;SDS011;10216;42.658;23.248;2022-10-18T05:49:28;29.30;;;13.97;;
20110;SDS011;10216;42.658;23.248;2022-10-18T05:51:54;96.20;;;41.50;;
20110;SDS011;10216;42.658;23.248;2022-10-18T05:54:19;79.70;;;36.07;;
20110;SDS011;10216;42.658;23.248;2022-10-18T05:56:45;53.10;;;24.93;;
20110;SDS011;10216;42.658;23.248;2022-10-18T05:59:10;39.40;;;19.10;;
20110;SDS011;10216;42.658;23.248;2022-10-18T06:01:39;60.67;;;30.27;;
20110;SDS011;10216;42.658;23.248;2022-10-18T06:04:06;46.77;;;26.27;;
20110;SDS011;10216;42.658;23.248;2022-10-18T06:06:34;42.70;;;24.20;;
20110;SDS011;10216;42.658;23.248;2022-10-18T06:09:00;29.57;;;17.60;;
20110;SDS011;10216;42.658;23.248;2022-10-18T06:11:27;25.50;;;17.17;;
20110;SDS011;10216;42.658;23.248;2022-10-18T06:13:54;33.67;;;22.30;;
20110;SDS011;10216;42.658;23.248;2022-10-18T06:16:21;26.93;;;18.40;;
20110;SDS011;10216;42.658;23.248;2022-10-18T06:18:48;13.53;;;11.50;;
20110;SDS011;10216;42.658;23.248;2022-10-18T06:21:15;13.37;;;10.77;;
20110;SDS011;10216;42.658;23.248;2022-10-18T06:23:41;16.30;;;11.67;;
20110;SDS011;10216;42.658;23.248;2022-10-18T06:26:06;17.87;;;10.80;;
20110;SDS011;10216;42.658;23.248;2022-10-18T06:28:34;17.83;;;11.43;;
20110;SDS011;10216;42.658;23.248;2022-10-18T06:31:00;18.90;;;11.37;;
20110;SDS011;10216;42.658;23.248;2022-10-18T06:33:25;18.17;;;10.90;;
20110;SDS011;10216;42.658;23.248;2022-10-18T06:35:58;22.73;;;11.60;;
20110;SDS011;10216;42.658;23.248;2022-10-18T06:38:25;19.00;;;11.73;;
20110;SDS011;10216;42.658;23.248;2022-10-18T06:40:51;17.17;;;10.93;;
20110;SDS011;10216;42.658;23.248;2022-10-18T06:43:17;18.97;;;11.30;;
20110;SDS011;10216;42.658;23.248;2022-10-18T06:45:42;18.57;;;11.23;;
20110;SDS011;10216;42.658;23.248;2022-10-18T06:48:08;17.50;;;10.90;;
20110;SDS011;10216;42.658;23.248;2022-10-18T06:50:33;16.17;;;12.13;;
20110;SDS011;10216;42.658;23.248;2022-10-18T06:52:58;20.70;;;11.37;;
20110;SDS011;10216;42.658;23.248;2022-10-18T06:55:28;17.23;;;11.87;;
20110;SDS011;10216;42.658;23.248;2022-10-18T06:57:54;22.50;;;11.70;;
20110;SDS011;10216;42.658;23.248;2022-10-18T07:00:19;22.77;;;14.07;;
20110;SDS011;10216;42.658;23.248;2022-10-18T07:02:45;22.87;;;12.90;;
20110;SDS011;10216;42.658;23.248;2022-10-18T07:05:10;17.00;;;12.83;;
20110;SDS011;10216;42.658;23.248;2022-10-18T07:07:36;21.87;;;12.77;;
20110;SDS011;10216;42.658;23.248;2022-10-18T07:10:02;23.67;;;13.40;;
20110;SDS011;10216;42.658;23.248;2022-10-18T07:12:28;21.30;;;13.00;;
20110;SDS011;10216;42.658;23.248;2022-10-18T07:14:55;21.40;;;13.57;;
20110;SDS011;10216;42.658;23.248;2022-10-18T07:17:20;23.70;;;12.13;;
20110;SDS011;10216;42.658;23.248;2022-10-18T07:19:46;19.57;;;11.57;;
20110;SDS011;10216;42.658;23.248;2022-10-18T07:22:11;26.37;;;14.10;;
20110;SDS011;10216;42.658;23.248;2022-10-18T07:24:36;19.50;;;11.67;;
20110;SDS011;10216;42.658;23.248;2022-10-18T07:27:02;17.37;;;12.30;;
20110;SDS011;10216;42.658;23.248;2022-10-18T07:29:27;13.70;;;10.23;;
20110;SDS011;10216;42.658;23.248;2022-10-18T07:31:53;15.60;;;10.57;;
20110;SDS011;10216;42.658;23.248;2022-10-18T07:34:18;15.37;;;10.57;;
20110;SDS011;10216;42.658;23.248;2022-10-18T07:36:43;19.67;;;10.40;;
20110;SDS011;10216;42.658;23.248;2022-10-18T07:39:09;17.17;;;10.20;;
20110;SDS011;10216;42.658;23.248;2022-10-18T07:41:34;14.13;;;9.53;;
20110;SDS011;10216;42.658;23.248;2022-10-18T07:44:00;17.07;;;10.30;;
20110;SDS011;10216;42.658;23.248;2022-10-18T07:46:26;18.43;;;10.50;;
20110;SDS011;10216;42.658;23.248;2022-10-18T07:48:51;18.83;;;11.53;;
20110;SDS011;10216;42.658;23.248;2022-10-18T07:51:18;24.30;;;10.60;;
20110;SDS011;10216;42.658;23.248;2022-10-18T07:53:44;19.73;;;10.47;;
20110;SDS011;10216;42.658;23.248;2022-10-18T07:56:12;18.83;;;10.47;;
20110;SDS011;10216;42.658;23.248;2022-10-18T07:58:44;16.43;;;10.73;;
20110;SDS011;10216;42.658;23.248;2022-10-18T08:01:12;19.07;;;11.37;;
20110;SDS011;10216;42.658;23.248;2022-10-18T08:03:39;22.30;;;12.10;;
20110;SDS011;10216;42.658;23.248;2022-10-18T08:06:06;20.77;;;11.77;;
20110;SDS011;10216;42.658;23.248;2022-10-18T08:08:34;17.33;;;10.87;;
20110;SDS011;10216;42.658;23.248;2022-10-18T08:11:04;24.33;;;12.10;;
20110;SDS011;10216;42.658;23.248;2022-10-18T08:13:31;16.77;;;11.70;;
20110;SDS011;10216;42.658;23.248;2022-10-18T08:16:01;19.00;;;12.07;;
20110;SDS011;10216;42.658;23.248;2022-10-18T08:18:27;20.97;;;12.77;;
20110;SDS011;10216;42.658;23.248;2022-10-18T08:20:53;17.23;;;12.47;;
20110;SDS011;10216;42.658;23.248;2022-10-18T08:23:18;23.43;;;13.47;;
20110;SDS011;10216;42.658;23.248;2022-10-18T08:25:44;18.73;;;13.00;;
20110;SDS011;10216;42.658;23.248;2022-10-18T08:28:09;20.47;;;13.73;;
20110;SDS011;10216;42.658;23.248;2022-10-18T08:30:35;20.93;;;13.63;;
20110;SDS011;10216;42.658;23.248;2022-10-18T08:33:01;23.87;;;13.80;;
20110;SDS011;10216;42.658;23.248;2022-10-18T08:35:27;23.03;;;13.80;;
20110;SDS011;10216;42.658;23.248;2022-10-18T08:37:52;17.73;;;13.70;;
20110;SDS011;10216;42.658;23.248;2022-10-18T08:40:17;25.80;;;17.03;;
20110;SDS011;10216;42.658;23.248;2022-10-18T08:45:10;23.37;;;15.30;;
20110;SDS011;10216;42.658;23.248;2022-10-18T08:47:40;22.27;;;13.33;;
20110;SDS011;10216;42.658;23.248;2022-10-18T08:50:12;23.33;;;13.67;;
20110;SDS011;10216;42.658;23.248;2022-10-18T08:55:47;22.47;;;14.70;;
20110;SDS011;10216;42.658;23.248;2022-10-18T08:58:18;21.67;;;13.47;;
20110;SDS011;10216;42.658;23.248;2022-10-18T09:00:49;19.03;;;12.57;;
20110;SDS011;10216;42.658;23.248;2022-10-18T09:04:00;21.00;;;13.97;;
20110;SDS011;10216;42.658;23.248;2022-10-18T09:09:06;27.20;;;13.97;;
20110;SDS011;10216;42.658;23.248;2022-10-18T09:20:15;28.50;;;14.37;;
20110;SDS011;10216;42.658;23.248;2022-10-18T09:25:25;20.83;;;14.30;;
20110;SDS011;10216;42.658;23.248;2022-10-18T09:30:40;20.93;;;15.27;;
20110;SDS011;10216;42.658;23.248;2022-10-18T09:36:07;24.13;;;13.93;;
20110;SDS011;10216;42.658;23.248;2022-10-18T09:38:48;24.03;;;14.17;;
20110;SDS011;10216;42.658;23.248;2022-10-18T09:44:17;17.93;;;13.23;;
20110;SDS011;10216;42.658;23.248;2022-10-18T09:46:51;16.80;;;12.47;;
20110;SDS011;10216;42.658;23.248;2022-10-18T09:49:46;20.33;;;12.67;;
20110;SDS011;10216;42.658;23.248;2022-10-18T09:52:27;19.23;;;11.87;;
20110;SDS011;10216;42.658;23.248;2022-10-18T09:55:05;20.63;;;12.03;;
20110;SDS011;10216;42.658;23.248;2022-10-18T09:57:43;16.70;;;11.10;;
20110;SDS011;10216;42.658;23.248;2022-10-18T10:00:20;18.87;;;10.60;;
20110;SDS011;10216;42.658;23.248;2022-10-18T10:02:49;16.50;;;9.73;;
20110;SDS011;10216;42.658;23.248;2022-10-18T10:05:15;13.80;;;10.57;;
20110;SDS011;10216;42.658;23.248;2022-10-18T10:07:41;17.03;;;11.23;;
20110;SDS011;10216;42.658;23.248;2022-10-18T10:10:25;15.83;;;11.27;;
20110;SDS011;10216;42.658;23.248;2022-10-18T10:13:05;20.87;;;10.57;;
20110;SDS011;10216;42.658;23.248;2022-10-18T10:15:56;17.37;;;9.90;;
20110;SDS011;10216;42.658;23.248;2022-10-18T10:18:35;16.70;;;10.20;;
20110;SDS011;10216;42.658;23.248;2022-10-18T10:21:03;14.82;;;10.05;;
20110;SDS011;10216;42.658;23.248;2022-10-18T10:26:28;19.35;;;9.77;;
20110;SDS011;10216;42.658;23.248;2022-10-18T10:28:56;12.13;;;9.60;;
20110;SDS011;10216;42.658;23.248;2022-10-18T10:31:26;19.38;;;9.05;;
20110;SDS011;10216;42.658;23.248;2022-10-18T10:36:31;18.73;;;10.23;;
20110;SDS011;10216;42.658;23.248;2022-10-18T10:39:11;13.15;;;9.32;;
20110;SDS011;10216;42.658;23.248;2022-10-18T10:41:42;12.48;;;8.98;;
20110;SDS011;10216;42.658;23.248;2022-10-18T10:44:19;12.68;;;8.05;;
20110;SDS011;10216;42.658;23.248;2022-10-18T10:46:49;11.43;;;7.18;;
20110;SDS011;10216;42.658;23.248;2022-10-18T10:49:22;17.15;;;7.57;;
20110;SDS011;10216;42.658;23.248;2022-10-18T10:51:58;11.55;;;6.30;;
20110;SDS011;10216;42.658;23.248;2022-10-18T10:54:26;11.98;;;7.00;;
20110;SDS011;10216;42.658;23.248;2022-10-18T10:59:19;13.85;;;6.47;;
20110;SDS011;10216;42.658;23.248;2022-10-18T11:01:48;12.52;;;5.90;;
20110;SDS011;10216;42.658;23.248;2022-10-18T11:04:26;11.05;;;6.07;;
20110;SDS011;10216;42.658;23.248;2022-10-18T11:07:03;9.43;;;5.63;;
20110;SDS011;10216;42.658;23.248;2022-10-18T11:09:38;7.50;;;5.45;;
20110;SDS011;10216;42.658;23.248;2022-10-18T11:12:20;8.35;;;5.70;;
20110;SDS011;10216;42.658;23.248;2022-10-18T11:15:51;9.48;;;5.50;;
20110;SDS011;10216;42.658;23.248;2022-10-18T11:18:17;9.43;;;4.80;;
20110;SDS011;10216;42.658;23.248;2022-10-18T11:21:03;11.23;;;5.00;;
20110;SDS011;10216;42.658;23.248;2022-10-18T11:23:48;9.13;;;6.07;;
20110;SDS011;10216;42.658;23.248;2022-10-18T11:26:21;8.38;;;4.68;;
20110;SDS011;10216;42.658;23.248;2022-10-18T11:45:34;6.28;;;4.18;;
20110;SDS011;10216;42.658;23.248;2022-10-18T11:53:45;5.68;;;4.10;;
20110;SDS011;10216;42.658;23.248;2022-10-18T11:56:38;6.68;;;4.55;;
20110;SDS011;10216;42.658;23.248;2022-10-18T12:04:51;4.05;;;3.70;;
20110;SDS011;10216;42.658;23.248;2022-10-18T12:07:21;7.63;;;3.88;;
20110;SDS011;10216;42.658;23.248;2022-10-18T12:09:48;7.47;;;3.80;;
20110;SDS011;10216;42.658;23.248;2022-10-18T12:12:25;5.88;;;3.53;;
20110;SDS011;10216;42.658;23.248;2022-10-18T12:15:02;6.95;;;3.75;;
20110;SDS011;10216;42.658;23.248;2022-10-18T12:17:37;5.35;;;3.00;;
20110;SDS011;10216;42.658;23.248;2022-10-18T12:20:10;5.68;;;3.63;;
20110;SDS011;10216;42.658;23.248;2022-10-18T12:22:42;4.95;;;3.40;;
20110;SDS011;10216;42.658;23.248;2022-10-18T12:25:14;4.25;;;3.20;;
20110;SDS011;10216;42.658;23.248;2022-10-18T12:27:51;3.90;;;3.10;;
20110;SDS011;10216;42.658;23.248;2022-10-18T12:30:40;6.75;;;3.33;;
20110;SDS011;10216;42.658;23.248;2022-10-18T12:33:14;7.10;;;3.17;;
20110;SDS011;10216;42.658;23.248;2022-10-18T12:38:24;6.88;;;3.10;;
20110;SDS011;10216;42.658;23.248;2022-10-18T12:40:53;3.60;;;3.15;;
20110;SDS011;10216;42.658;23.248;2022-10-18T12:43:23;5.70;;;3.17;;
20110;SDS011;10216;42.658;23.248;2022-10-18T12:45:58;4.97;;;3.00;;
20110;SDS011;10216;42.658;23.248;2022-10-18T12:50:56;6.55;;;3.03;;
20110;SDS011;10216;42.658;23.248;2022-10-18T12:53:24;6.43;;;2.90;;
20110;SDS011;10216;42.658;23.248;2022-10-18T12:55:51;4.47;;;3.17;;
20110;SDS011;10216;42.658;23.248;2022-10-18T13:11:23;4.60;;;2.30;;
20110;SDS011;10216;42.658;23.248;2022-10-18T13:14:13;3.97;;;2.70;;
20110;SDS011;10216;42.658;23.248;2022-10-18T13:17:00;5.45;;;2.50;;
20110;SDS011;10216;42.658;23.248;2022-10-18T13:37:31;3.97;;;2.67;;
20110;SDS011;10216;42.658;23.248;2022-10-18T13:39:34;4.73;;;2.63;;
20110;SDS011;10216;42.658;23.248;2022-10-18T13:44:28;4.07;;;2.43;;
20110;SDS011;10216;42.658;23.248;2022-10-18T14:00:28;4.33;;;2.50;;
20110;SDS011;10216;42.658;23.248;2022-10-18T14:03:36;8.30;;;2.37;;
20110;SDS011;10216;42.658;23.248;2022-10-18T14:08:31;5.30;;;2.20;;
20110;SDS011;10216;42.658;23.248;2022-10-18T14:11:05;7.20;;;2.40;;
20110;SDS011;10216;42.658;23.248;2022-10-18T14:13:42;5.00;;;2.40;;
20110;SDS011;10216;42.658;23.248;2022-10-18T14:16:33;6.63;;;2.87;;
20110;SDS011;10216;42.658;23.248;2022-10-18T14:21:57;5.10;;;2.13;;
20110;SDS011;10216;42.658;23.248;2022-10-18T14:24:50;6.07;;;2.83;;
20110;SDS011;10216;42.658;23.248;2022-10-18T14:29:46;3.73;;;2.43;;
20110;SDS011;10216;42.658;23.248;2022-10-18T14:32:25;2.57;;;1.77;;
20110;SDS011;10216;42.658;23.248;2022-10-18T14:34:53;3.87;;;2.30;;
20110;SDS011;10216;42.658;23.248;2022-10-18T14:37:30;4.53;;;2.40;;
20110;SDS011;10216;42.658;23.248;2022-10-18T14:39:58;6.40;;;2.63;;
20110;SDS011;10216;42.658;23.248;2022-10-18T14:42:24;3.10;;;2.43;;
20110;SDS011;10216;42.658;23.248;2022-10-18T14:44:51;7.53;;;2.17;;
20110;SDS011;10216;42.658;23.248;2022-10-18T14:47:24;4.10;;;2.13;;
20110;SDS011;10216;42.658;23.248;2022-10-18T14:49:51;3.23;;;2.07;;
20110;SDS011;10216;42.658;23.248;2022-10-18T14:52:25;2.50;;;2.00;;
20110;SDS011;10216;42.658;23.248;2022-10-18T14:54:54;2.87;;;1.80;;
20110;SDS011;10216;42.658;23.248;2022-10-18T14:57:24;2.90;;;2.20;;
20110;SDS011;10216;42.658;23.248;2022-10-18T14:59:58;3.83;;;1.80;;
20110;SDS011;10216;42.658;23.248;2022-10-18T15:02:39;5.30;;;2.43;;
20110;SDS011;10216;42.658;23.248;2022-10-18T15:07:44;4.87;;;2.77;;
20110;SDS011;10216;42.658;23.248;2022-10-18T15:10:22;2.83;;;2.13;;
20110;SDS011;10216;42.658;23.248;2022-10-18T15:12:52;6.33;;;2.50;;
20110;SDS011;10216;42.658;23.248;2022-10-18T15:15:19;5.57;;;4.00;;
20110;SDS011;10216;42.658;23.248;2022-10-18T15:17:49;4.23;;;3.13;;
20110;SDS011;10216;42.658;23.248;2022-10-18T15:22:49;6.60;;;3.00;;
20110;SDS011;10216;42.658;23.248;2022-10-18T15:25:27;8.20;;;3.73;;
20110;SDS011;10216;42.658;23.248;2022-10-18T15:27:57;8.43;;;4.93;;
20110;SDS011;10216;42.658;23.248;2022-10-18T15:30:28;5.73;;;3.50;;
20110;SDS011;10216;42.658;23.248;2022-10-18T15:33:01;5.87;;;2.63;;
20110;SDS011;10216;42.658;23.248;2022-10-18T15:37:57;13.27;;;2.03;;
20110;SDS011;10216;42.658;23.248;2022-10-18T15:42:53;9.87;;;2.87;;
20110;SDS011;10216;42.658;23.248;2022-10-18T15:48:13;5.13;;;2.00;;
20110;SDS011;10216;42.658;23.248;2022-10-18T15:56:06;2.83;;;1.97;;
20110;SDS011;10216;42.658;23.248;2022-10-18T16:01:16;2.40;;;2.20;;
20110;SDS011;10216;42.658;23.248;2022-10-18T16:03:45;6.17;;;3.40;;
20110;SDS011;10216;42.658;23.248;2022-10-18T16:06:12;8.33;;;2.70;;
20110;SDS011;10216;42.658;23.248;2022-10-18T16:08:40;3.13;;;2.10;;
20110;SDS011;10216;42.658;23.248;2022-10-18T16:11:08;2.20;;;1.80;;
20110;SDS011;10216;42.658;23.248;2022-10-18T16:13:39;3.67;;;2.90;;
20110;SDS011;10216;42.658;23.248;2022-10-18T16:16:04;3.40;;;2.20;;
20110;SDS011;10216;42.658;23.248;2022-10-18T16:18:30;2.40;;;1.90;;
20110;SDS011;10216;42.658;23.248;2022-10-18T16:20:55;4.77;;;2.17;;
20110;SDS011;10216;42.658;23.248;2022-10-18T16:23:22;3.33;;;2.10;;
20110;SDS011;10216;42.658;23.248;2022-10-18T16:25:49;2.77;;;2.13;;
20110;SDS011;10216;42.658;23.248;2022-10-18T16:28:16;5.10;;;2.27;;
20110;SDS011;10216;42.658;23.248;2022-10-18T16:30:46;4.90;;;2.10;;
20110;SDS011;10216;42.658;23.248;2022-10-18T16:33:25;3.40;;;2.00;;
20110;SDS011;10216;42.658;23.248;2022-10-18T16:35:51;2.77;;;1.97;;
20110;SDS011;10216;42.658;23.248;2022-10-18T16:38:24;3.10;;;2.07;;
20110;SDS011;10216;42.658;23.248;2022-10-18T16:40:52;4.80;;;2.20;;
20110;SDS011;10216;42.658;23.248;2022-10-18T16:43:18;3.23;;;2.30;;
20110;SDS011;10216;42.658;23.248;2022-10-18T16:45:43;3.37;;;2.10;;
20110;SDS011;10216;42.658;23.248;2022-10-18T16:48:16;4.27;;;2.40;;
20110;SDS011;10216;42.658;23.248;2022-10-18T16:50:46;6.43;;;3.53;;
20110;SDS011;10216;42.658;23.248;2022-10-18T16:53:12;3.70;;;2.50;;
20110;SDS011;10216;42.658;23.248;2022-10-18T16:55:38;5.47;;;2.10;;
20110;SDS011;10216;42.658;23.248;2022-10-18T16:58:05;3.70;;;2.17;;
20110;SDS011;10216;42.658;23.248;2022-10-18T17:00:31;4.97;;;2.13;;
20110;SDS011;10216;42.658;23.248;2022-10-18T17:02:57;3.93;;;2.50;;
20110;SDS011;10216;42.658;23.248;2022-10-18T17:05:23;8.17;;;3.40;;
20110;SDS011;10216;42.658;23.248;2022-10-18T17:07:48;8.13;;;3.33;;
20110;SDS011;10216;42.658;23.248;2022-10-18T17:10:15;6.23;;;3.30;;
20110;SDS011;10216;42.658;23.248;2022-10-18T17:12:43;6.00;;;3.03;;
20110;SDS011;10216;42.658;23.248;2022-10-18T17:15:08;4.07;;;2.63;;
20110;SDS011;10216;42.658;23.248;2022-10-18T17:17:34;7.10;;;2.80;;
20110;SDS011;10216;42.658;23.248;2022-10-18T17:20:02;5.47;;;2.60;;
20110;SDS011;10216;42.658;23.248;2022-10-18T17:22:30;5.80;;;2.60;;
20110;SDS011;10216;42.658;23.248;2022-10-18T17:24:55;5.10;;;2.67;;
20110;SDS011;10216;42.658;23.248;2022-10-18T17:27:21;5.43;;;2.37;;
20110;SDS011;10216;42.658;23.248;2022-10-18T17:29:46;5.10;;;2.13;;
20110;SDS011;10216;42.658;23.248;2022-10-18T17:32:11;3.03;;;2.00;;